首页
METAR-TAF:

METAR-TAF

机场 :

Lawson Army Airfield

哥伦布, 喬治亞, 美国

纬度: 32-20N, 经度: 084-50W, 海拔: 71米

当前天气观测

该预报发布于2小时和0分钟前的18:56 UTC
风速4节,风向
温度 14°C
湿度 58%
气压 1019 hPa
能見度: 16.1公里
散云层高于20000英尺

METAR: KLSF 131856Z AUTO 01004KT 10SM SCT200 14/06 A3010 RMK AO2 SLP199 T01430059

时间: 15:56 (20:56 UTC)

预报

该预报发布于3小时和56分钟前的17:00 UTC
预报有效从13日的 17点(UTC)到 14日的 23点(UTC)
风速6节,风向
能见度10公里或以上
散云层高于5000英尺
多云层高于20000英尺
成为
从 14日的 02点(UTC)到 14日的 03点(UTC)
风速6节,风向
能見度: 8000
多云层高于1500英尺
阴天层高于3000英尺
小雨
成为
从 14日的 05点(UTC)到 14日的 06点(UTC)
风速10节,风向,有时为15节阵风
能見度: 4800
多云层高于700英尺
阴天层高于1500英尺
成为
从 14日的 15点(UTC)到 14日的 16点(UTC)
风速6节,风向南转南东
能見度: 6000
阴天层高于500英尺
小雨
成为
从 14日的 20点(UTC)到 14日的 21点(UTC)
风速6节,风向多变
能見度: 8000
阴天层高于700英尺
小阵雨

TAF: KLSF 131700Z 1317/1423 36006KT 9999 SCT050 BKN200 QNH3005INS BECMG 1402/1403 09006KT 8000 -RA BKN015 OVC030 QNH3003INS BECMG 1405/1406 09010G15KT 4800 RA BKN007 OVC015 520003 QNH2996INS BECMG 1415/1416 16006KT 6000 -RA OVC005 520003 QNH2979INS BECMG 1420/1421 VRB06KT 8000 -SHRA OVC007 520003 QNH2983INS TX15/1318Z TNM01/1409Z

超过4000个机场的气象观测和天气预报(METAR&TAF报告)。

可查询的气象台以黄色和红色小点在地图上表示。

将鼠标移到小点上方,可查看气象台名称。

然后点击查看天气观测和预报。

如需切换地图:点击带黑十字的绿色按钮放大地图;点击带横线的绿色按钮缩小地图;或者点击绿色箭头查看邻近地区的地图。


METAR-TAF: